sensor_id;sensor_type;location;lat;lon;timestamp;temperature;humidity
70244;DHT22;57634;51.136;17.024;2023-05-21T00:00:20;16.40;80.80
70244;DHT22;57634;51.136;17.024;2023-05-21T00:03:26;16.40;80.80
70244;DHT22;57634;51.136;17.024;2023-05-21T00:06:30;16.30;80.70
70244;DHT22;57634;51.136;17.024;2023-05-21T00:09:32;16.30;80.80
70244;DHT22;57634;51.136;17.024;2023-05-21T00:12:33;16.30;80.90
70244;DHT22;57634;51.136;17.024;2023-05-21T00:15:35;16.30;80.80
70244;DHT22;57634;51.136;17.024;2023-05-21T00:18:36;16.30;80.90
70244;DHT22;57634;51.136;17.024;2023-05-21T00:22:05;16.20;80.80
70244;DHT22;57634;51.136;17.024;2023-05-21T00:25:08;16.20;80.80
70244;DHT22;57634;51.136;17.024;2023-05-21T00:28:10;16.20;80.80
70244;DHT22;57634;51.136;17.024;2023-05-21T00:31:11;16.10;80.70
70244;DHT22;57634;51.136;17.024;2023-05-21T00:34:13;16.10;80.80
70244;DHT22;57634;51.136;17.024;2023-05-21T00:37:14;16.10;80.70
70244;DHT22;57634;51.136;17.024;2023-05-21T00:40:17;16.00;80.70
70244;DHT22;57634;51.136;17.024;2023-05-21T00:43:18;16.00;80.70
70244;DHT22;57634;51.136;17.024;2023-05-21T00:46:25;16.00;80.60
70244;DHT22;57634;51.136;17.024;2023-05-21T00:49:29;16.00;80.50
70244;DHT22;57634;51.136;17.024;2023-05-21T00:52:30;15.90;80.50
70244;DHT22;57634;51.136;17.024;2023-05-21T00:55:31;15.90;80.40
70244;DHT22;57634;51.136;17.024;2023-05-21T00:59:00;15.90;80.40
70244;DHT22;57634;51.136;17.024;2023-05-21T01:02:05;15.80;80.40
70244;DHT22;57634;51.136;17.024;2023-05-21T01:05:09;15.80;80.40
70244;DHT22;57634;51.136;17.024;2023-05-21T01:08:10;15.80;80.50
70244;DHT22;57634;51.136;17.024;2023-05-21T01:11:13;15.80;80.40
70244;DHT22;57634;51.136;17.024;2023-05-21T01:14:16;15.80;80.40
70244;DHT22;57634;51.136;17.024;2023-05-21T01:17:18;15.80;80.40
70244;DHT22;57634;51.136;17.024;2023-05-21T01:20:23;15.70;80.30
70244;DHT22;57634;51.136;17.024;2023-05-21T01:23:25;15.70;80.30
70244;DHT22;57634;51.136;17.024;2023-05-21T01:26:26;15.70;80.30
70244;DHT22;57634;51.136;17.024;2023-05-21T01:29:30;15.70;80.30
70244;DHT22;57634;51.136;17.024;2023-05-21T01:36:33;15.70;80.40
70244;DHT22;57634;51.136;17.024;2023-05-21T01:39:33;15.60;80.40
70244;DHT22;57634;51.136;17.024;2023-05-21T01:42:38;15.60;80.40
70244;DHT22;57634;51.136;17.024;2023-05-21T01:45:42;15.50;80.40
70244;DHT22;57634;51.136;17.024;2023-05-21T01:49:13;15.50;80.40
70244;DHT22;57634;51.136;17.024;2023-05-21T01:52:16;15.50;80.60
70244;DHT22;57634;51.136;17.024;2023-05-21T01:55:18;15.40;80.70
70244;DHT22;57634;51.136;17.024;2023-05-21T01:58:24;15.40;80.80
70244;DHT22;57634;51.136;17.024;2023-05-21T02:01:25;15.40;80.90
70244;DHT22;57634;51.136;17.024;2023-05-21T02:04:29;15.40;81.00
70244;DHT22;57634;51.136;17.024;2023-05-21T02:07:31;15.40;81.00
70244;DHT22;57634;51.136;17.024;2023-05-21T02:10:34;15.30;81.00
70244;DHT22;57634;51.136;17.024;2023-05-21T02:13:36;15.30;81.00
70244;DHT22;57634;51.136;17.024;2023-05-21T02:16:42;15.30;81.00
70244;DHT22;57634;51.136;17.024;2023-05-21T02:19:43;15.30;80.90
70244;DHT22;57634;51.136;17.024;2023-05-21T02:23:10;15.30;80.80
70244;DHT22;57634;51.136;17.024;2023-05-21T02:26:11;15.30;80.90
70244;DHT22;57634;51.136;17.024;2023-05-21T02:29:12;15.30;81.00
70244;DHT22;57634;51.136;17.024;2023-05-21T02:32:14;15.30;81.00
70244;DHT22;57634;51.136;17.024;2023-05-21T02:35:17;15.20;81.00
70244;DHT22;57634;51.136;17.024;2023-05-21T02:38:18;15.20;81.00
70244;DHT22;57634;51.136;17.024;2023-05-21T02:41:26;15.20;81.10
70244;DHT22;57634;51.136;17.024;2023-05-21T02:44:27;15.20;81.20
70244;DHT22;57634;51.136;17.024;2023-05-21T02:47:29;15.20;81.30
70244;DHT22;57634;51.136;17.024;2023-05-21T02:50:30;15.20;81.30
70244;DHT22;57634;51.136;17.024;2023-05-21T02:53:32;15.10;81.30
70244;DHT22;57634;51.136;17.024;2023-05-21T02:56:33;15.10;81.40
70244;DHT22;57634;51.136;17.024;2023-05-21T02:59:34;15.10;81.40
70244;DHT22;57634;51.136;17.024;2023-05-21T03:03:03;15.10;81.50
70244;DHT22;57634;51.136;17.024;2023-05-21T03:06:04;15.10;81.60
70244;DHT22;57634;51.136;17.024;2023-05-21T03:09:05;15.10;81.60
70244;DHT22;57634;51.136;17.024;2023-05-21T03:12:07;15.10;81.70
70244;DHT22;57634;51.136;17.024;2023-05-21T03:15:09;15.10;81.70
70244;DHT22;57634;51.136;17.024;2023-05-21T03:18:11;15.10;81.70
70244;DHT22;57634;51.136;17.024;2023-05-21T03:21:13;15.20;81.70
70244;DHT22;57634;51.136;17.024;2023-05-21T03:24:15;15.20;81.60
70244;DHT22;57634;51.136;17.024;2023-05-21T03:27:17;15.20;81.60
70244;DHT22;57634;51.136;17.024;2023-05-21T03:30:18;15.30;81.60
70244;DHT22;57634;51.136;17.024;2023-05-21T03:33:21;15.30;81.40
70244;DHT22;57634;51.136;17.024;2023-05-21T03:36:22;15.40;81.30
70244;DHT22;57634;51.136;17.024;2023-05-21T03:39:24;15.50;81.10
70244;DHT22;57634;51.136;17.024;2023-05-21T03:49:26;16.00;80.00
70244;DHT22;57634;51.136;17.024;2023-05-21T03:52:27;16.20;79.60
70244;DHT22;57634;51.136;17.024;2023-05-21T03:55:28;16.40;79.00
70244;DHT22;57634;51.136;17.024;2023-05-21T03:58:29;16.60;78.50
70244;DHT22;57634;51.136;17.024;2023-05-21T04:01:31;16.80;77.80
70244;DHT22;57634;51.136;17.024;2023-05-21T04:04:33;16.90;76.90
70244;DHT22;57634;51.136;17.024;2023-05-21T04:08:00;17.10;76.30
70244;DHT22;57634;51.136;17.024;2023-05-21T04:11:01;17.20;75.80
70244;DHT22;57634;51.136;17.024;2023-05-21T04:14:02;17.40;75.50
70244;DHT22;57634;51.136;17.024;2023-05-21T04:30:29;19.00;71.00
70244;DHT22;57634;51.136;17.024;2023-05-21T04:33:30;19.40;69.50
70244;DHT22;57634;51.136;17.024;2023-05-21T04:36:32;19.70;68.30
70244;DHT22;57634;51.136;17.024;2023-05-21T04:39:33;20.00;67.10
70244;DHT22;57634;51.136;17.024;2023-05-21T04:42:35;20.20;66.00
70244;DHT22;57634;51.136;17.024;2023-05-21T04:45:36;20.50;65.50
70244;DHT22;57634;51.136;17.024;2023-05-21T04:48:37;20.90;64.50
70244;DHT22;57634;51.136;17.024;2023-05-21T04:51:46;21.70;63.20
70244;DHT22;57634;51.136;17.024;2023-05-21T04:54:47;22.40;61.40
70244;DHT22;57634;51.136;17.024;2023-05-21T04:58:13;23.30;59.50
70244;DHT22;57634;51.136;17.024;2023-05-21T05:01:21;24.20;55.90
70244;DHT22;57634;51.136;17.024;2023-05-21T05:04:30;25.00;53.20
70244;DHT22;57634;51.136;17.024;2023-05-21T05:07:31;25.60;51.30
70244;DHT22;57634;51.136;17.024;2023-05-21T05:10:32;26.30;50.00
70244;DHT22;57634;51.136;17.024;2023-05-21T05:13:33;27.30;48.70
70244;DHT22;57634;51.136;17.024;2023-05-21T05:26:47;30.90;40.30
70244;DHT22;57634;51.136;17.024;2023-05-21T05:29:48;31.60;38.50
70244;DHT22;57634;51.136;17.024;2023-05-21T05:32:50;32.20;37.20
70244;DHT22;57634;51.136;17.024;2023-05-21T05:35:51;32.50;36.50
70244;DHT22;57634;51.136;17.024;2023-05-21T05:38:52;32.80;35.50
70244;DHT22;57634;51.136;17.024;2023-05-21T05:41:54;33.20;35.20
70244;DHT22;57634;51.136;17.024;2023-05-21T05:44:55;34.00;34.50
70244;DHT22;57634;51.136;17.024;2023-05-21T05:47:57;34.60;32.80
70244;DHT22;57634;51.136;17.024;2023-05-21T05:50:58;34.60;31.70
70244;DHT22;57634;51.136;17.024;2023-05-21T05:54:00;34.50;31.40
70244;DHT22;57634;51.136;17.024;2023-05-21T05:57:27;34.40;31.30
70244;DHT22;57634;51.136;17.024;2023-05-21T06:00:29;34.60;30.50
70244;DHT22;57634;51.136;17.024;2023-05-21T06:03:31;34.80;30.30
70244;DHT22;57634;51.136;17.024;2023-05-21T06:06:32;35.50;29.90
70244;DHT22;57634;51.136;17.024;2023-05-21T06:09:34;36.00;29.10
70244;DHT22;57634;51.136;17.024;2023-05-21T06:12:35;36.50;28.30
70244;DHT22;57634;51.136;17.024;2023-05-21T06:15:36;36.80;28.40
70244;DHT22;57634;51.136;17.024;2023-05-21T06:18:42;37.40;27.90
70244;DHT22;57634;51.136;17.024;2023-05-21T06:21:43;37.70;27.20
70244;DHT22;57634;51.136;17.024;2023-05-21T06:24:44;37.60;27.10
70244;DHT22;57634;51.136;17.024;2023-05-21T06:27:46;38.00;26.60
70244;DHT22;57634;51.136;17.024;2023-05-21T07:56:06;36.40;26.10
70244;DHT22;57634;51.136;17.024;2023-05-21T07:59:08;36.60;26.40
70244;DHT22;57634;51.136;17.024;2023-05-21T08:02:09;36.70;26.00
70244;DHT22;57634;51.136;17.024;2023-05-21T08:05:37;36.20;26.00
70244;DHT22;57634;51.136;17.024;2023-05-21T08:08:38;36.10;26.50
70244;DHT22;57634;51.136;17.024;2023-05-21T08:11:39;36.30;26.30
70244;DHT22;57634;51.136;17.024;2023-05-21T08:14:41;36.60;26.10
70244;DHT22;57634;51.136;17.024;2023-05-21T08:26:20;36.10;26.50
70244;DHT22;57634;51.136;17.024;2023-05-21T08:29:21;35.80;26.60
70244;DHT22;57634;51.136;17.024;2023-05-21T08:32:23;35.50;26.70
70244;DHT22;57634;51.136;17.024;2023-05-21T08:35:24;35.30;26.80
70244;DHT22;57634;51.136;17.024;2023-05-21T08:38:25;35.40;27.20
70244;DHT22;57634;51.136;17.024;2023-05-21T08:41:32;35.80;27.20
70244;DHT22;57634;51.136;17.024;2023-05-21T08:44:42;36.00;26.80
70244;DHT22;57634;51.136;17.024;2023-05-21T08:47:53;35.90;27.00
70244;DHT22;57634;51.136;17.024;2023-05-21T08:51:22;35.90;27.10
70244;DHT22;57634;51.136;17.024;2023-05-21T08:54:24;36.40;27.10
70244;DHT22;57634;51.136;17.024;2023-05-21T08:57:28;36.50;26.40
70244;DHT22;57634;51.136;17.024;2023-05-21T09:00:30;36.40;26.50
70244;DHT22;57634;51.136;17.024;2023-05-21T09:03:34;36.70;26.80
70244;DHT22;57634;51.136;17.024;2023-05-21T09:06:43;37.10;26.20
70244;DHT22;57634;51.136;17.024;2023-05-21T09:09:55;37.10;25.80
70244;DHT22;57634;51.136;17.024;2023-05-21T09:12:57;36.80;26.00
70244;DHT22;57634;51.136;17.024;2023-05-21T09:16:27;36.80;25.80
70244;DHT22;57634;51.136;17.024;2023-05-21T09:19:28;36.40;26.00
70244;DHT22;57634;51.136;17.024;2023-05-21T09:22:31;36.10;26.10
70244;DHT22;57634;51.136;17.024;2023-05-21T09:25:37;36.10;26.20
70244;DHT22;57634;51.136;17.024;2023-05-21T09:28:39;36.20;26.00
70244;DHT22;57634;51.136;17.024;2023-05-21T09:31:44;36.00;25.90
70244;DHT22;57634;51.136;17.024;2023-05-21T09:34:47;35.70;26.00
70244;DHT22;57634;51.136;17.024;2023-05-21T09:37:49;35.30;26.50
70244;DHT22;57634;51.136;17.024;2023-05-21T09:40:57;34.60;26.70
70244;DHT22;57634;51.136;17.024;2023-05-21T09:44:00;33.40;27.70
70244;DHT22;57634;51.136;17.024;2023-05-21T09:47:27;32.40;28.70
70244;DHT22;57634;51.136;17.024;2023-05-21T09:50:28;31.30;30.00
70244;DHT22;57634;51.136;17.024;2023-05-21T09:53:35;30.50;31.20
70244;DHT22;57634;51.136;17.024;2023-05-21T09:56:36;29.90;31.90
70244;DHT22;57634;51.136;17.024;2023-05-21T09:59:37;29.30;32.50
70244;DHT22;57634;51.136;17.024;2023-05-21T10:02:44;28.80;33.10
70244;DHT22;57634;51.136;17.024;2023-05-21T10:05:48;28.20;33.90
70244;DHT22;57634;51.136;17.024;2023-05-21T10:08:55;28.00;34.70
70244;DHT22;57634;51.136;17.024;2023-05-21T10:11:57;27.70;35.20
70244;DHT22;57634;51.136;17.024;2023-05-21T10:15:02;27.50;35.70
70244;DHT22;57634;51.136;17.024;2023-05-21T10:18:31;27.40;36.20
70244;DHT22;57634;51.136;17.024;2023-05-21T10:21:33;27.20;36.70
70244;DHT22;57634;51.136;17.024;2023-05-21T10:24:35;27.20;36.80
70244;DHT22;57634;51.136;17.024;2023-05-21T10:27:38;27.20;36.60
70244;DHT22;57634;51.136;17.024;2023-05-21T10:30:44;27.10;36.10
70244;DHT22;57634;51.136;17.024;2023-05-21T10:33:51;27.10;36.80
70244;DHT22;57634;51.136;17.024;2023-05-21T10:36:53;27.10;36.80
70244;DHT22;57634;51.136;17.024;2023-05-21T10:39:59;27.00;37.00
70244;DHT22;57634;51.136;17.024;2023-05-21T11:00:02;27.00;36.60
70244;DHT22;57634;51.136;17.024;2023-05-21T11:03:09;26.90;36.30
70244;DHT22;57634;51.136;17.024;2023-05-21T11:09:25;26.90;36.40
70244;DHT22;57634;51.136;17.024;2023-05-21T11:12:26;26.80;36.20
70244;DHT22;57634;51.136;17.024;2023-05-21T11:19:18;26.80;36.10
70244;DHT22;57634;51.136;17.024;2023-05-21T11:22:25;26.70;35.30
70244;DHT22;57634;51.136;17.024;2023-05-21T11:25:26;26.70;35.10
70244;DHT22;57634;51.136;17.024;2023-05-21T11:28:32;26.70;35.10
70244;DHT22;57634;51.136;17.024;2023-05-21T11:31:35;26.70;35.10
70244;DHT22;57634;51.136;17.024;2023-05-21T11:34:44;26.70;35.20
70244;DHT22;57634;51.136;17.024;2023-05-21T11:37:48;26.80;35.10
70244;DHT22;57634;51.136;17.024;2023-05-21T11:40:53;26.80;34.90
70244;DHT22;57634;51.136;17.024;2023-05-21T11:47:39;26.80;34.80
70244;DHT22;57634;51.136;17.024;2023-05-21T11:50:40;26.80;35.00
70244;DHT22;57634;51.136;17.024;2023-05-21T11:53:44;26.80;35.00
70244;DHT22;57634;51.136;17.024;2023-05-21T11:56:48;26.90;35.10
70244;DHT22;57634;51.136;17.024;2023-05-21T11:59:53;26.80;35.20
70244;DHT22;57634;51.136;17.024;2023-05-21T12:02:54;26.80;35.20
70244;DHT22;57634;51.136;17.024;2023-05-21T12:06:04;26.60;35.10
70244;DHT22;57634;51.136;17.024;2023-05-21T12:09:41;26.50;35.30
70244;DHT22;57634;51.136;17.024;2023-05-21T12:12:42;26.50;35.90
70244;DHT22;57634;51.136;17.024;2023-05-21T12:15:44;26.60;35.70
70244;DHT22;57634;51.136;17.024;2023-05-21T12:18:45;26.50;35.50
70244;DHT22;57634;51.136;17.024;2023-05-21T12:21:47;26.30;35.70
70244;DHT22;57634;51.136;17.024;2023-05-21T12:24:49;26.40;35.70
70244;DHT22;57634;51.136;17.024;2023-05-21T12:27:53;26.40;35.50
70244;DHT22;57634;51.136;17.024;2023-05-21T12:30:58;26.40;35.70
70244;DHT22;57634;51.136;17.024;2023-05-21T12:34:01;26.40;35.60
70244;DHT22;57634;51.136;17.024;2023-05-21T12:37:03;26.50;35.60
70244;DHT22;57634;51.136;17.024;2023-05-21T12:40:36;26.50;35.50
70244;DHT22;57634;51.136;17.024;2023-05-21T12:43:37;26.50;35.50
70244;DHT22;57634;51.136;17.024;2023-05-21T12:46:40;26.50;35.40
70244;DHT22;57634;51.136;17.024;2023-05-21T12:49:45;26.50;35.50
70244;DHT22;57634;51.136;17.024;2023-05-21T12:52:53;26.50;35.50
70244;DHT22;57634;51.136;17.024;2023-05-21T12:56:11;26.50;35.50
70244;DHT22;57634;51.136;17.024;2023-05-21T12:59:13;26.60;35.30
70244;DHT22;57634;51.136;17.024;2023-05-21T13:02:43;26.60;35.50
70244;DHT22;57634;51.136;17.024;2023-05-21T13:05:46;26.60;35.20
70244;DHT22;57634;51.136;17.024;2023-05-21T13:08:48;26.60;35.00
70244;DHT22;57634;51.136;17.024;2023-05-21T13:11:49;26.50;35.00
70244;DHT22;57634;51.136;17.024;2023-05-21T13:14:54;26.40;35.20
70244;DHT22;57634;51.136;17.024;2023-05-21T13:17:57;26.40;35.40
70244;DHT22;57634;51.136;17.024;2023-05-21T13:21:00;26.50;35.70
70244;DHT22;57634;51.136;17.024;2023-05-21T13:24:01;26.60;35.50
70244;DHT22;57634;51.136;17.024;2023-05-21T13:27:02;26.70;35.50
70244;DHT22;57634;51.136;17.024;2023-05-21T13:30:05;26.70;35.10
70244;DHT22;57634;51.136;17.024;2023-05-21T13:33:07;26.70;35.10
70244;DHT22;57634;51.136;17.024;2023-05-21T13:36:08;26.70;35.10
70244;DHT22;57634;51.136;17.024;2023-05-21T13:39:36;26.60;35.00
70244;DHT22;57634;51.136;17.024;2023-05-21T13:42:38;26.60;34.70
70244;DHT22;57634;51.136;17.024;2023-05-21T13:45:39;26.50;34.80
70244;DHT22;57634;51.136;17.024;2023-05-21T13:48:40;26.50;35.00
70244;DHT22;57634;51.136;17.024;2023-05-21T13:54:58;26.60;34.80
70244;DHT22;57634;51.136;17.024;2023-05-21T13:58:00;26.60;34.80
70244;DHT22;57634;51.136;17.024;2023-05-21T14:01:02;26.70;34.60
70244;DHT22;57634;51.136;17.024;2023-05-21T14:04:03;26.70;34.60
70244;DHT22;57634;51.136;17.024;2023-05-21T14:07:07;26.70;34.60
70244;DHT22;57634;51.136;17.024;2023-05-21T14:10:35;26.70;34.20
70244;DHT22;57634;51.136;17.024;2023-05-21T14:13:36;26.60;34.20
70244;DHT22;57634;51.136;17.024;2023-05-21T14:16:37;26.60;34.50
70244;DHT22;57634;51.136;17.024;2023-05-21T14:19:39;26.50;34.20
70244;DHT22;57634;51.136;17.024;2023-05-21T14:22:41;26.40;34.10
70244;DHT22;57634;51.136;17.024;2023-05-21T14:25:42;26.30;34.30
70244;DHT22;57634;51.136;17.024;2023-05-21T14:28:44;26.30;34.70
70244;DHT22;57634;51.136;17.024;2023-05-21T14:31:46;26.40;34.70
70244;DHT22;57634;51.136;17.024;2023-05-21T14:34:47;26.40;34.50
70244;DHT22;57634;51.136;17.024;2023-05-21T14:37:49;26.40;34.10
70244;DHT22;57634;51.136;17.024;2023-05-21T14:40:50;26.30;34.10
70244;DHT22;57634;51.136;17.024;2023-05-21T14:43:51;26.30;34.30
70244;DHT22;57634;51.136;17.024;2023-05-21T14:46:53;26.20;34.40
70244;DHT22;57634;51.136;17.024;2023-05-21T14:49:54;26.20;34.20
70244;DHT22;57634;51.136;17.024;2023-05-21T14:53:22;26.20;34.10
70244;DHT22;57634;51.136;17.024;2023-05-21T14:56:23;26.20;34.20
70244;DHT22;57634;51.136;17.024;2023-05-21T14:59:27;26.20;34.10
70244;DHT22;57634;51.136;17.024;2023-05-21T15:02:29;26.20;34.30
70244;DHT22;57634;51.136;17.024;2023-05-21T15:05:30;26.20;34.40
70244;DHT22;57634;51.136;17.024;2023-05-21T15:08:33;26.20;34.60
70244;DHT22;57634;51.136;17.024;2023-05-21T15:11:34;26.30;34.70
70244;DHT22;57634;51.136;17.024;2023-05-21T15:14:35;26.30;34.10
70244;DHT22;57634;51.136;17.024;2023-05-21T15:17:37;26.30;33.80
70244;DHT22;57634;51.136;17.024;2023-05-21T15:20:38;26.20;34.00
70244;DHT22;57634;51.136;17.024;2023-05-21T15:23:39;26.20;34.10
70244;DHT22;57634;51.136;17.024;2023-05-21T15:26:41;26.20;34.20
70244;DHT22;57634;51.136;17.024;2023-05-21T15:29:42;26.20;34.10
70244;DHT22;57634;51.136;17.024;2023-05-21T15:33:12;26.20;34.00
70244;DHT22;57634;51.136;17.024;2023-05-21T15:36:14;26.30;34.10
70244;DHT22;57634;51.136;17.024;2023-05-21T15:39:15;26.30;34.40
70244;DHT22;57634;51.136;17.024;2023-05-21T15:42:16;26.30;34.10
70244;DHT22;57634;51.136;17.024;2023-05-21T15:45:18;26.40;33.70
70244;DHT22;57634;51.136;17.024;2023-05-21T15:48:19;26.30;33.20
70244;DHT22;57634;51.136;17.024;2023-05-21T15:51:22;26.30;33.40
70244;DHT22;57634;51.136;17.024;2023-05-21T15:54:23;26.30;33.40
70244;DHT22;57634;51.136;17.024;2023-05-21T15:57:25;26.30;33.20
70244;DHT22;57634;51.136;17.024;2023-05-21T16:00:27;26.30;33.10
70244;DHT22;57634;51.136;17.024;2023-05-21T16:03:28;26.20;33.00
70244;DHT22;57634;51.136;17.024;2023-05-21T16:06:29;26.20;32.90
70244;DHT22;57634;51.136;17.024;2023-05-21T16:09:32;26.10;32.90
70244;DHT22;57634;51.136;17.024;2023-05-21T16:13:02;26.00;33.00
70244;DHT22;57634;51.136;17.024;2023-05-21T16:16:05;25.90;33.20
70244;DHT22;57634;51.136;17.024;2023-05-21T16:19:06;25.90;33.30
70244;DHT22;57634;51.136;17.024;2023-05-21T16:22:07;25.90;33.70
70244;DHT22;57634;51.136;17.024;2023-05-21T16:25:08;25.80;33.80
70244;DHT22;57634;51.136;17.024;2023-05-21T16:28:10;25.80;33.80
70244;DHT22;57634;51.136;17.024;2023-05-21T16:31:12;25.70;34.00
70244;DHT22;57634;51.136;17.024;2023-05-21T16:34:14;25.60;34.20
70244;DHT22;57634;51.136;17.024;2023-05-21T16:37:16;25.60;34.30
70244;DHT22;57634;51.136;17.024;2023-05-21T16:40:19;25.50;34.50
70244;DHT22;57634;51.136;17.024;2023-05-21T16:43:20;25.50;34.60
70244;DHT22;57634;51.136;17.024;2023-05-21T16:46:25;25.40;34.60
70244;DHT22;57634;51.136;17.024;2023-05-21T16:49:56;25.40;34.70
70244;DHT22;57634;51.136;17.024;2023-05-21T16:52:58;25.40;35.00
70244;DHT22;57634;51.136;17.024;2023-05-21T16:56:04;25.30;35.00
70244;DHT22;57634;51.136;17.024;2023-05-21T16:59:05;25.30;35.30
70244;DHT22;57634;51.136;17.024;2023-05-21T17:02:08;25.30;35.40
70244;DHT22;57634;51.136;17.024;2023-05-21T17:05:11;25.20;35.40
70244;DHT22;57634;51.136;17.024;2023-05-21T17:08:12;25.20;35.50
70244;DHT22;57634;51.136;17.024;2023-05-21T17:11:13;25.10;35.60
70244;DHT22;57634;51.136;17.024;2023-05-21T17:14:14;25.00;35.70
70244;DHT22;57634;51.136;17.024;2023-05-21T17:17:15;25.00;35.90
70244;DHT22;57634;51.136;17.024;2023-05-21T17:20:16;24.80;36.00
70244;DHT22;57634;51.136;17.024;2023-05-21T17:23:17;24.80;36.00
70244;DHT22;57634;51.136;17.024;2023-05-21T17:26:20;24.70;36.10
70244;DHT22;57634;51.136;17.024;2023-05-21T17:29:49;24.70;36.20
70244;DHT22;57634;51.136;17.024;2023-05-21T17:32:51;24.60;36.40
70244;DHT22;57634;51.136;17.024;2023-05-21T17:35:55;24.50;36.60
70244;DHT22;57634;51.136;17.024;2023-05-21T17:38:56;24.50;36.70
70244;DHT22;57634;51.136;17.024;2023-05-21T17:41:57;24.40;36.80
70244;DHT22;57634;51.136;17.024;2023-05-21T17:44:59;24.40;37.00
70244;DHT22;57634;51.136;17.024;2023-05-21T17:48:00;24.30;37.10
70244;DHT22;57634;51.136;17.024;2023-05-21T17:51:02;24.30;37.30
70244;DHT22;57634;51.136;17.024;2023-05-21T17:54:04;24.20;37.50
70244;DHT22;57634;51.136;17.024;2023-05-21T17:57:09;24.10;37.50
70244;DHT22;57634;51.136;17.024;2023-05-21T18:00:11;24.00;37.60
70244;DHT22;57634;51.136;17.024;2023-05-21T18:03:12;24.00;37.80
70244;DHT22;57634;51.136;17.024;2023-05-21T18:06:42;23.90;38.00
70244;DHT22;57634;51.136;17.024;2023-05-21T18:09:43;23.90;38.40
70244;DHT22;57634;51.136;17.024;2023-05-21T18:12:44;23.80;38.50
70244;DHT22;57634;51.136;17.024;2023-05-21T18:15:46;23.70;38.70
70244;DHT22;57634;51.136;17.024;2023-05-21T18:18:47;23.70;38.90
70244;DHT22;57634;51.136;17.024;2023-05-21T18:21:48;23.60;39.00
70244;DHT22;57634;51.136;17.024;2023-05-21T18:24:50;23.50;39.20
70244;DHT22;57634;51.136;17.024;2023-05-21T18:27:51;23.50;39.40
70244;DHT22;57634;51.136;17.024;2023-05-21T18:30:53;23.40;39.50
70244;DHT22;57634;51.136;17.024;2023-05-21T18:33:55;23.30;39.70
70244;DHT22;57634;51.136;17.024;2023-05-21T18:36:56;23.30;40.00
70244;DHT22;57634;51.136;17.024;2023-05-21T18:43:42;23.10;40.20
70244;DHT22;57634;51.136;17.024;2023-05-21T18:46:44;23.10;40.50
70244;DHT22;57634;51.136;17.024;2023-05-21T18:49:46;23.00;40.70
70244;DHT22;57634;51.136;17.024;2023-05-21T18:52:47;22.90;40.90
70244;DHT22;57634;51.136;17.024;2023-05-21T18:55:49;22.80;41.20
70244;DHT22;57634;51.136;17.024;2023-05-21T18:58:50;22.70;41.40
70244;DHT22;57634;51.136;17.024;2023-05-21T19:01:51;22.70;41.70
70244;DHT22;57634;51.136;17.024;2023-05-21T19:04:52;22.60;41.80
70244;DHT22;57634;51.136;17.024;2023-05-21T19:07:53;22.50;42.00
70244;DHT22;57634;51.136;17.024;2023-05-21T19:10:54;22.40;42.10
70244;DHT22;57634;51.136;17.024;2023-05-21T19:13:55;22.30;42.40
70244;DHT22;57634;51.136;17.024;2023-05-21T19:16:56;22.30;42.60
70244;DHT22;57634;51.136;17.024;2023-05-21T19:19:58;22.20;42.70
70244;DHT22;57634;51.136;17.024;2023-05-21T19:22:59;22.10;42.90
70244;DHT22;57634;51.136;17.024;2023-05-21T19:26:01;22.10;43.10
70244;DHT22;57634;51.136;17.024;2023-05-21T19:29:28;22.00;43.30
70244;DHT22;57634;51.136;17.024;2023-05-21T19:32:29;22.00;43.60
70244;DHT22;57634;51.136;17.024;2023-05-21T19:35:31;21.90;43.70
70244;DHT22;57634;51.136;17.024;2023-05-21T19:38:34;21.80;43.80
70244;DHT22;57634;51.136;17.024;2023-05-21T19:41:35;21.70;43.90
70244;DHT22;57634;51.136;17.024;2023-05-21T19:44:40;21.70;44.10
70244;DHT22;57634;51.136;17.024;2023-05-21T19:47:42;21.60;44.30
70244;DHT22;57634;51.136;17.024;2023-05-21T19:50:43;21.50;44.50
70244;DHT22;57634;51.136;17.024;2023-05-21T19:53:45;21.50;44.80
70244;DHT22;57634;51.136;17.024;2023-05-21T19:56:46;21.40;44.90
70244;DHT22;57634;51.136;17.024;2023-05-21T19:59:47;21.30;45.20
70244;DHT22;57634;51.136;17.024;2023-05-21T20:02:49;21.20;45.40
70244;DHT22;57634;51.136;17.024;2023-05-21T20:05:51;21.20;45.70
70244;DHT22;57634;51.136;17.024;2023-05-21T20:09:18;21.10;45.90
70244;DHT22;57634;51.136;17.024;2023-05-21T20:12:19;21.00;46.20
70244;DHT22;57634;51.136;17.024;2023-05-21T20:15:21;20.90;46.40
70244;DHT22;57634;51.136;17.024;2023-05-21T20:18:22;20.80;46.60
70244;DHT22;57634;51.136;17.024;2023-05-21T20:21:24;20.80;46.80
70244;DHT22;57634;51.136;17.024;2023-05-21T20:24:26;20.70;47.10
70244;DHT22;57634;51.136;17.024;2023-05-21T20:27:27;20.60;47.20
70244;DHT22;57634;51.136;17.024;2023-05-21T20:30:33;20.50;47.50
70244;DHT22;57634;51.136;17.024;2023-05-21T20:33:35;20.50;47.70
70244;DHT22;57634;51.136;17.024;2023-05-21T20:36:37;20.40;47.80
70244;DHT22;57634;51.136;17.024;2023-05-21T20:39:41;20.30;48.00
70244;DHT22;57634;51.136;17.024;2023-05-21T20:42:46;20.20;48.20
70244;DHT22;57634;51.136;17.024;2023-05-21T20:46:15;20.20;48.50
70244;DHT22;57634;51.136;17.024;2023-05-21T20:49:17;20.10;48.90
70244;DHT22;57634;51.136;17.024;2023-05-21T20:52:20;20.00;49.20
70244;DHT22;57634;51.136;17.024;2023-05-21T20:55:23;19.90;49.40
70244;DHT22;57634;51.136;17.024;2023-05-21T20:58:24;19.90;49.60
70244;DHT22;57634;51.136;17.024;2023-05-21T21:01:25;19.80;49.80
70244;DHT22;57634;51.136;17.024;2023-05-21T21:04:30;19.80;50.00
70244;DHT22;57634;51.136;17.024;2023-05-21T21:07:31;19.80;50.10
70244;DHT22;57634;51.136;17.024;2023-05-21T21:10:34;19.70;50.10
70244;DHT22;57634;51.136;17.024;2023-05-21T21:13:35;19.70;50.20
70244;DHT22;57634;51.136;17.024;2023-05-21T21:16:36;19.70;50.30
70244;DHT22;57634;51.136;17.024;2023-05-21T21:19:37;19.70;50.40
70244;DHT22;57634;51.136;17.024;2023-05-21T21:22:38;19.60;50.50
70244;DHT22;57634;51.136;17.024;2023-05-21T21:26:06;19.60;50.60
70244;DHT22;57634;51.136;17.024;2023-05-21T21:29:07;19.60;50.80
70244;DHT22;57634;51.136;17.024;2023-05-21T21:32:08;19.60;51.00
70244;DHT22;57634;51.136;17.024;2023-05-21T21:35:10;19.50;51.10
70244;DHT22;57634;51.136;17.024;2023-05-21T21:38:12;19.50;51.20
70244;DHT22;57634;51.136;17.024;2023-05-21T21:41:13;19.50;51.40
70244;DHT22;57634;51.136;17.024;2023-05-21T21:44:15;19.40;51.60
70244;DHT22;57634;51.136;17.024;2023-05-21T21:47:16;19.40;51.80